sensor_id;sensor_type;location;lat;lon;timestamp;pressure;altitude;pressure_sealevel;temperature;humidity
8451;BME280;4262;50.980;13.892;2023-04-10T00:01:55;50306.34;;;-142.97;27.85
8451;BME280;4262;50.980;13.892;2023-04-10T00:04:23;50333.63;;;-142.97;27.65
8451;BME280;4262;50.980;13.892;2023-04-10T00:06:50;50279.03;;;-142.97;27.72
8451;BME280;4262;50.980;13.892;2023-04-10T00:09:17;50306.34;;;-142.97;27.89
8451;BME280;4262;50.980;13.892;2023-04-10T00:11:44;50294.63;;;-142.97;27.95
8451;BME280;4262;50.980;13.892;2023-04-10T00:14:14;50296.59;;;-142.97;27.78
8451;BME280;4262;50.980;13.892;2023-04-10T00:16:47;50325.84;;;-142.97;28.27
8451;BME280;4262;50.980;13.892;2023-04-10T00:19:14;50337.53;;;-142.97;28.11
8451;BME280;4262;50.980;13.892;2023-04-10T00:21:41;50331.69;;;-142.97;27.95
8451;BME280;4262;50.980;13.892;2023-04-10T00:24:08;50286.84;;;-142.97;28.08
8451;BME280;4262;50.980;13.892;2023-04-10T00:26:35;50288.78;;;-142.97;27.67
8451;BME280;4262;50.980;13.892;2023-04-10T00:29:03;50286.84;;;-142.97;27.76
8451;BME280;4262;50.980;13.892;2023-04-10T00:31:32;50302.44;;;-142.97;27.72
8451;BME280;4262;50.980;13.892;2023-04-10T00:33:59;50318.03;;;-142.97;27.88
8451;BME280;4262;50.980;13.892;2023-04-10T00:36:26;50318.03;;;-142.97;27.93
8451;BME280;4262;50.980;13.892;2023-04-10T00:38:53;50304.38;;;-142.97;28.12
8451;BME280;4262;50.980;13.892;2023-04-10T00:41:20;50271.25;;;-142.97;28.41
8451;BME280;4262;50.980;13.892;2023-04-10T00:43:48;50308.28;;;-142.97;28.20
8451;BME280;4262;50.980;13.892;2023-04-10T00:46:15;50310.25;;;-142.97;28.24
8451;BME280;4262;50.980;13.892;2023-04-10T00:48:43;50282.94;;;-142.97;28.22
8451;BME280;4262;50.980;13.892;2023-04-10T00:51:10;50298.53;;;-142.97;27.90
8451;BME280;4262;50.980;13.892;2023-04-10T00:53:37;50306.34;;;-142.97;28.23
8451;BME280;4262;50.980;13.892;2023-04-10T00:56:05;50286.84;;;-142.97;28.17
8451;BME280;4262;50.980;13.892;2023-04-10T00:58:32;50286.84;;;-142.97;28.31
8451;BME280;4262;50.980;13.892;2023-04-10T01:00:59;50302.44;;;-142.97;28.27
8451;BME280;4262;50.980;13.892;2023-04-10T01:03:26;50323.88;;;-142.97;28.07
8451;BME280;4262;50.980;13.892;2023-04-10T01:05:59;50292.69;;;-142.97;28.25
8451;BME280;4262;50.980;13.892;2023-04-10T01:08:35;50286.84;;;-142.97;28.07
8451;BME280;4262;50.980;13.892;2023-04-10T01:11:09;50302.44;;;-142.97;27.86
8451;BME280;4262;50.980;13.892;2023-04-10T01:13:42;50353.13;;;-142.97;27.87
8451;BME280;4262;50.980;13.892;2023-04-10T01:16:18;50310.25;;;-142.97;27.91
8451;BME280;4262;50.980;13.892;2023-04-10T01:18:49;50294.63;;;-142.97;27.91
8451;BME280;4262;50.980;13.892;2023-04-10T01:21:20;50277.09;;;-142.97;28.05
8451;BME280;4262;50.980;13.892;2023-04-10T01:23:59;50327.78;;;-142.97;28.13
8451;BME280;4262;50.980;13.892;2023-04-10T01:26:44;50273.19;;;-142.97;27.98
8451;BME280;4262;50.980;13.892;2023-04-10T01:29:17;50273.19;;;-142.97;27.62
8451;BME280;4262;50.980;13.892;2023-04-10T01:31:49;50325.84;;;-142.97;27.67
8451;BME280;4262;50.980;13.892;2023-04-10T01:34:19;50304.38;;;-142.97;27.98
8451;BME280;4262;50.980;13.892;2023-04-10T01:36:48;50275.16;;;-142.97;27.98
8451;BME280;4262;50.980;13.892;2023-04-10T01:39:18;50279.03;;;-142.97;28.61
8451;BME280;4262;50.980;13.892;2023-04-10T01:41:47;50320.00;;;-142.97;28.30
8451;BME280;4262;50.980;13.892;2023-04-10T01:44:23;50318.03;;;-142.97;27.90
8451;BME280;4262;50.980;13.892;2023-04-10T01:46:51;50296.59;;;-142.97;27.82
8451;BME280;4262;50.980;13.892;2023-04-10T01:49:20;50310.25;;;-142.97;27.74
8451;BME280;4262;50.980;13.892;2023-04-10T01:51:47;50341.44;;;-142.97;27.74
8451;BME280;4262;50.980;13.892;2023-04-10T01:54:15;50325.84;;;-142.97;27.81
8451;BME280;4262;50.980;13.892;2023-04-10T01:56:43;50333.63;;;-142.97;27.74
8451;BME280;4262;50.980;13.892;2023-04-10T01:59:14;50314.13;;;-142.97;27.79
8451;BME280;4262;50.980;13.892;2023-04-10T02:01:42;50269.28;;;-142.97;27.72
8451;BME280;4262;50.980;13.892;2023-04-10T02:04:09;50284.91;;;-142.97;27.64
8451;BME280;4262;50.980;13.892;2023-04-10T02:06:40;50339.47;;;-142.97;27.84
8451;BME280;4262;50.980;13.892;2023-04-10T02:09:15;50292.69;;;-142.97;27.89
8451;BME280;4262;50.980;13.892;2023-04-10T02:11:49;50281.00;;;-142.97;27.84
8451;BME280;4262;50.980;13.892;2023-04-10T02:14:21;50306.34;;;-142.97;27.72
8451;BME280;4262;50.980;13.892;2023-04-10T02:16:52;50327.78;;;-142.97;27.80
8451;BME280;4262;50.980;13.892;2023-04-10T02:19:20;50314.13;;;-142.97;27.74
8451;BME280;4262;50.980;13.892;2023-04-10T02:21:49;50308.28;;;-142.97;27.94
8451;BME280;4262;50.980;13.892;2023-04-10T02:24:16;50279.03;;;-142.97;28.05
8451;BME280;4262;50.980;13.892;2023-04-10T02:26:46;50314.13;;;-142.97;28.39
8451;BME280;4262;50.980;13.892;2023-04-10T02:29:15;50286.84;;;-142.97;28.80
8451;BME280;4262;50.980;13.892;2023-04-10T02:31:42;50288.78;;;-142.97;28.59
8451;BME280;4262;50.980;13.892;2023-04-10T02:34:11;50312.19;;;-142.97;28.61
8451;BME280;4262;50.980;13.892;2023-04-10T02:36:38;50298.53;;;-142.97;29.08
8451;BME280;4262;50.980;13.892;2023-04-10T02:39:07;50296.59;;;-142.97;28.85
8451;BME280;4262;50.980;13.892;2023-04-10T02:41:43;50296.59;;;-142.97;28.66
8451;BME280;4262;50.980;13.892;2023-04-10T02:44:13;50290.75;;;-142.97;28.66
8451;BME280;4262;50.980;13.892;2023-04-10T02:46:40;50296.59;;;-142.97;28.80
8451;BME280;4262;50.980;13.892;2023-04-10T02:49:07;50288.78;;;-142.97;28.70
8451;BME280;4262;50.980;13.892;2023-04-10T02:51:35;50290.75;;;-142.97;28.73
8451;BME280;4262;50.980;13.892;2023-04-10T02:54:03;50294.63;;;-142.97;28.30
8451;BME280;4262;50.980;13.892;2023-04-10T02:56:32;50318.03;;;-142.97;28.36
8451;BME280;4262;50.980;13.892;2023-04-10T02:59:00;50312.19;;;-142.97;28.08
8451;BME280;4262;50.980;13.892;2023-04-10T03:01:28;50290.75;;;-142.97;28.07
8451;BME280;4262;50.980;13.892;2023-04-10T03:03:55;50308.28;;;-142.97;28.70
8451;BME280;4262;50.980;13.892;2023-04-10T03:06:26;50327.78;;;-142.97;29.49
8451;BME280;4262;50.980;13.892;2023-04-10T03:08:56;50302.44;;;-142.97;28.97
8451;BME280;4262;50.980;13.892;2023-04-10T03:11:23;50325.84;;;-142.97;29.14
8451;BME280;4262;50.980;13.892;2023-04-10T03:13:52;50304.38;;;-142.97;29.92
8451;BME280;4262;50.980;13.892;2023-04-10T03:16:20;50296.59;;;-142.97;30.32
8451;BME280;4262;50.980;13.892;2023-04-10T03:18:47;50316.09;;;-142.97;30.35
8451;BME280;4262;50.980;13.892;2023-04-10T03:21:14;50318.03;;;-142.97;30.06
8451;BME280;4262;50.980;13.892;2023-04-10T03:23:41;50277.09;;;-142.97;29.83
8451;BME280;4262;50.980;13.892;2023-04-10T03:26:11;50282.94;;;-142.97;29.43
8451;BME280;4262;50.980;13.892;2023-04-10T03:28:37;50306.34;;;-142.97;29.05
8451;BME280;4262;50.980;13.892;2023-04-10T03:31:08;50314.13;;;-142.97;28.71
8451;BME280;4262;50.980;13.892;2023-04-10T03:33:38;50282.94;;;-142.97;28.73
8451;BME280;4262;50.980;13.892;2023-04-10T03:36:06;50304.38;;;-142.97;28.56
8451;BME280;4262;50.980;13.892;2023-04-10T03:38:33;50286.84;;;-142.97;28.83
8451;BME280;4262;50.980;13.892;2023-04-10T03:41:01;50312.19;;;-142.97;28.80
8451;BME280;4262;50.980;13.892;2023-04-10T03:43:32;50296.59;;;-142.97;28.89
8451;BME280;4262;50.980;13.892;2023-04-10T03:46:01;50290.75;;;-142.97;29.07
8451;BME280;4262;50.980;13.892;2023-04-10T03:48:28;50296.59;;;-142.97;28.66
8451;BME280;4262;50.980;13.892;2023-04-10T03:50:56;50320.00;;;-142.97;28.90
8451;BME280;4262;50.980;13.892;2023-04-10T03:53:23;50294.63;;;-142.97;28.73
8451;BME280;4262;50.980;13.892;2023-04-10T03:55:52;50327.78;;;-142.97;28.88
8451;BME280;4262;50.980;13.892;2023-04-10T03:58:21;50302.44;;;-142.97;28.68
8451;BME280;4262;50.980;13.892;2023-04-10T04:00:48;50294.63;;;-142.97;28.67
8451;BME280;4262;50.980;13.892;2023-04-10T04:03:24;50296.59;;;-142.97;28.53
8451;BME280;4262;50.980;13.892;2023-04-10T04:06:02;50320.00;;;-142.97;28.56
8451;BME280;4262;50.980;13.892;2023-04-10T04:08:39;50300.50;;;-142.97;28.54
8451;BME280;4262;50.980;13.892;2023-04-10T04:11:06;50325.84;;;-142.97;28.54
8451;BME280;4262;50.980;13.892;2023-04-10T04:13:53;50298.53;;;-142.97;28.46
8451;BME280;4262;50.980;13.892;2023-04-10T04:16:37;50296.59;;;-142.97;28.32
8451;BME280;4262;50.980;13.892;2023-04-10T04:19:22;50318.03;;;-142.97;28.32
8451;BME280;4262;50.980;13.892;2023-04-10T04:22:09;50273.19;;;-142.97;29.08
8451;BME280;4262;50.980;13.892;2023-04-10T04:24:59;50294.63;;;-142.97;28.95
8451;BME280;4262;50.980;13.892;2023-04-10T04:27:49;50290.75;;;-142.97;28.47
8451;BME280;4262;50.980;13.892;2023-04-10T04:30:41;50298.53;;;-142.97;28.50
8451;BME280;4262;50.980;13.892;2023-04-10T04:33:18;50302.44;;;-142.97;28.35
8451;BME280;4262;50.980;13.892;2023-04-10T04:35:57;50292.69;;;-142.97;28.31
8451;BME280;4262;50.980;13.892;2023-04-10T04:38:44;50294.63;;;-142.97;28.27
8451;BME280;4262;50.980;13.892;2023-04-10T04:41:11;50296.59;;;-142.97;28.37
8451;BME280;4262;50.980;13.892;2023-04-10T04:43:42;50329.72;;;-142.97;28.27
8451;BME280;4262;50.980;13.892;2023-04-10T04:46:19;50312.19;;;-142.97;28.46
8451;BME280;4262;50.980;13.892;2023-04-10T04:48:58;50296.59;;;-142.97;28.50
8451;BME280;4262;50.980;13.892;2023-04-10T04:51:45;50320.00;;;-142.97;28.37
8451;BME280;4262;50.980;13.892;2023-04-10T04:54:25;50310.25;;;-142.97;28.43
8451;BME280;4262;50.980;13.892;2023-04-10T04:57:11;50327.78;;;-142.97;28.42
8451;BME280;4262;50.980;13.892;2023-04-10T04:59:51;50316.09;;;-142.97;28.44
8451;BME280;4262;50.980;13.892;2023-04-10T05:02:39;50298.53;;;-142.97;28.42
8451;BME280;4262;50.980;13.892;2023-04-10T05:05:27;50269.28;;;-142.97;27.98
8451;BME280;4262;50.980;13.892;2023-04-10T05:08:32;50316.09;;;-142.97;28.38
8451;BME280;4262;50.980;13.892;2023-04-10T05:11:10;50318.03;;;-142.97;28.69
8451;BME280;4262;50.980;13.892;2023-04-10T05:14:15;50304.38;;;-142.97;28.68
8451;BME280;4262;50.980;13.892;2023-04-10T05:16:51;50273.19;;;-142.97;28.34
8451;BME280;4262;50.980;13.892;2023-04-10T05:19:22;50290.75;;;-142.97;28.04
8451;BME280;4262;50.980;13.892;2023-04-10T05:21:56;50284.91;;;-142.97;28.28
8451;BME280;4262;50.980;13.892;2023-04-10T05:24:44;50275.16;;;-142.97;27.86
8451;BME280;4262;50.980;13.892;2023-04-10T05:27:20;50277.09;;;-142.97;27.62
8451;BME280;4262;50.980;13.892;2023-04-10T05:30:06;50314.13;;;-142.97;27.33
8451;BME280;4262;50.980;13.892;2023-04-10T05:32:52;50267.34;;;-142.97;26.99
8451;BME280;4262;50.980;13.892;2023-04-10T05:35:45;50251.75;;;-142.97;27.37
8451;BME280;4262;50.980;13.892;2023-04-10T05:38:26;50249.81;;;-142.97;27.61
8451;BME280;4262;50.980;13.892;2023-04-10T05:41:11;50271.25;;;-142.97;26.68
8451;BME280;4262;50.980;13.892;2023-04-10T05:43:55;50232.25;;;-142.97;26.54
8451;BME280;4262;50.980;13.892;2023-04-10T05:46:48;50226.41;;;-142.97;26.49
8451;BME280;4262;50.980;13.892;2023-04-10T05:49:31;50247.84;;;-142.97;26.03
8451;BME280;4262;50.980;13.892;2023-04-10T05:52:29;50232.25;;;-142.97;26.29
8451;BME280;4262;50.980;13.892;2023-04-10T05:55:26;50218.59;;;-142.97;25.41
8451;BME280;4262;50.980;13.892;2023-04-10T05:58:20;50204.97;;;-142.97;25.83
8451;BME280;4262;50.980;13.892;2023-04-10T06:01:05;50232.25;;;-142.97;25.29
8451;BME280;4262;50.980;13.892;2023-04-10T06:03:47;50224.47;;;-142.97;25.09
8451;BME280;4262;50.980;13.892;2023-04-10T06:06:19;50208.84;;;-142.97;24.86
8451;BME280;4262;50.980;13.892;2023-04-10T06:08:45;50201.06;;;-142.97;25.06
8451;BME280;4262;50.980;13.892;2023-04-10T06:11:14;50204.97;;;-142.97;25.03
8451;BME280;4262;50.980;13.892;2023-04-10T06:13:45;50230.31;;;-142.97;24.97
8451;BME280;4262;50.980;13.892;2023-04-10T06:16:12;50222.50;;;-142.97;24.79
8451;BME280;4262;50.980;13.892;2023-04-10T06:18:42;50175.72;;;-142.97;24.88
8451;BME280;4262;50.980;13.892;2023-04-10T06:21:09;50214.72;;;-142.97;24.26
8451;BME280;4262;50.980;13.892;2023-04-10T06:23:36;50206.91;;;-142.97;24.30
8451;BME280;4262;50.980;13.892;2023-04-10T06:26:02;50193.25;;;-142.97;24.19
8451;BME280;4262;50.980;13.892;2023-04-10T06:28:32;50212.75;;;-142.97;24.13
8451;BME280;4262;50.980;13.892;2023-04-10T06:31:02;50208.84;;;-142.97;24.02
8451;BME280;4262;50.980;13.892;2023-04-10T06:33:32;50208.84;;;-142.97;24.09
8451;BME280;4262;50.980;13.892;2023-04-10T06:36:01;50171.81;;;-142.97;23.72
8451;BME280;4262;50.980;13.892;2023-04-10T06:38:34;50193.25;;;-142.97;23.73
8451;BME280;4262;50.980;13.892;2023-04-10T06:41:03;50181.56;;;-142.97;23.95
8451;BME280;4262;50.980;13.892;2023-04-10T06:43:33;50203.00;;;-142.97;23.34
8451;BME280;4262;50.980;13.892;2023-04-10T06:46:00;50187.41;;;-142.97;23.79
8451;BME280;4262;50.980;13.892;2023-04-10T06:48:27;50185.47;;;-142.97;23.08
8451;BME280;4262;50.980;13.892;2023-04-10T06:50:54;50154.28;;;-142.97;23.39
8451;BME280;4262;50.980;13.892;2023-04-10T06:53:21;50165.97;;;-142.97;23.55
8451;BME280;4262;50.980;13.892;2023-04-10T06:55:47;50181.56;;;-142.97;24.04
8451;BME280;4262;50.980;13.892;2023-04-10T06:58:15;50171.81;;;-142.97;23.89
8451;BME280;4262;50.980;13.892;2023-04-10T07:00:43;50156.22;;;-142.97;23.43
8451;BME280;4262;50.980;13.892;2023-04-10T07:03:09;50171.81;;;-142.97;23.58
8451;BME280;4262;50.980;13.892;2023-04-10T07:05:36;50162.06;;;-142.97;23.50
8451;BME280;4262;50.980;13.892;2023-04-10T07:08:02;50187.41;;;-142.97;23.92
8451;BME280;4262;50.980;13.892;2023-04-10T07:10:31;50158.16;;;-142.97;24.04
8451;BME280;4262;50.980;13.892;2023-04-10T07:12:57;50183.50;;;-142.97;23.98
8451;BME280;4262;50.980;13.892;2023-04-10T07:15:24;50185.47;;;-142.97;24.46
8451;BME280;4262;50.980;13.892;2023-04-10T07:17:53;50214.72;;;-142.97;24.26
8451;BME280;4262;50.980;13.892;2023-04-10T07:20:22;50224.47;;;-142.97;24.38
8451;BME280;4262;50.980;13.892;2023-04-10T07:22:49;50181.56;;;-142.97;23.82
8451;BME280;4262;50.980;13.892;2023-04-10T07:25:16;50208.84;;;-142.97;24.31
8451;BME280;4262;50.980;13.892;2023-04-10T07:27:44;50208.84;;;-142.97;24.70
8451;BME280;4262;50.980;13.892;2023-04-10T07:30:11;50148.41;;;-142.97;24.23
8451;BME280;4262;50.980;13.892;2023-04-10T07:32:38;50121.13;;;-142.97;23.68
8451;BME280;4262;50.980;13.892;2023-04-10T07:35:08;50150.38;;;-142.97;23.75
8451;BME280;4262;50.980;13.892;2023-04-10T07:37:35;50185.47;;;-142.97;23.59
8451;BME280;4262;50.980;13.892;2023-04-10T07:40:05;50121.13;;;-142.97;24.27
8451;BME280;4262;50.980;13.892;2023-04-10T07:42:32;50152.31;;;-142.97;23.54
8451;BME280;4262;50.980;13.892;2023-04-10T07:44:59;50111.38;;;-142.97;23.26
8451;BME280;4262;50.980;13.892;2023-04-10T07:47:25;50123.06;;;-142.97;22.60
8451;BME280;4262;50.980;13.892;2023-04-10T07:49:52;50136.72;;;-142.97;22.69
8451;BME280;4262;50.980;13.892;2023-04-10T07:52:21;50136.72;;;-142.97;22.71
8451;BME280;4262;50.980;13.892;2023-04-10T07:54:48;50109.44;;;-142.97;22.89
8451;BME280;4262;50.980;13.892;2023-04-10T07:57:14;50107.47;;;-142.97;22.74
8451;BME280;4262;50.980;13.892;2023-04-10T07:59:43;50136.72;;;-142.97;22.50
8451;BME280;4262;50.980;13.892;2023-04-10T08:02:10;50132.81;;;-142.97;22.55
8451;BME280;4262;50.980;13.892;2023-04-10T08:04:36;50066.53;;;-142.97;22.16
8451;BME280;4262;50.980;13.892;2023-04-10T08:07:03;50119.19;;;-142.97;22.59
8451;BME280;4262;50.980;13.892;2023-04-10T08:09:33;50099.69;;;-142.97;22.55
8451;BME280;4262;50.980;13.892;2023-04-10T08:11:59;50097.72;;;-142.97;22.18
8451;BME280;4262;50.980;13.892;2023-04-10T08:14:26;50099.69;;;-142.97;21.57
8451;BME280;4262;50.980;13.892;2023-04-10T08:16:53;50134.78;;;-142.97;21.93
8451;BME280;4262;50.980;13.892;2023-04-10T08:19:22;50119.19;;;-142.97;21.60
8451;BME280;4262;50.980;13.892;2023-04-10T08:21:49;50109.44;;;-142.97;21.92
8451;BME280;4262;50.980;13.892;2023-04-10T08:24:16;50093.84;;;-142.97;21.17
8451;BME280;4262;50.980;13.892;2023-04-10T08:26:45;50109.44;;;-142.97;21.89
8451;BME280;4262;50.980;13.892;2023-04-10T08:29:14;50111.38;;;-142.97;22.22
8451;BME280;4262;50.980;13.892;2023-04-10T08:31:41;50095.78;;;-142.97;22.26
8451;BME280;4262;50.980;13.892;2023-04-10T08:34:07;50115.28;;;-142.97;22.34
8451;BME280;4262;50.980;13.892;2023-04-10T08:36:34;50138.69;;;-142.97;22.04
8451;BME280;4262;50.980;13.892;2023-04-10T08:39:02;50103.59;;;-142.97;21.57
8451;BME280;4262;50.980;13.892;2023-04-10T08:41:29;50088.00;;;-142.97;21.58
8451;BME280;4262;50.980;13.892;2023-04-10T08:43:57;50091.88;;;-142.97;21.41
8451;BME280;4262;50.980;13.892;2023-04-10T08:46:24;50089.94;;;-142.97;21.75
8451;BME280;4262;50.980;13.892;2023-04-10T08:48:54;50056.78;;;-142.97;21.15
8451;BME280;4262;50.980;13.892;2023-04-10T08:51:30;50070.44;;;-142.97;21.86
8451;BME280;4262;50.980;13.892;2023-04-10T08:54:02;50091.88;;;-142.97;21.66
8451;BME280;4262;50.980;13.892;2023-04-10T08:56:31;50091.88;;;-142.97;21.03
8451;BME280;4262;50.980;13.892;2023-04-10T08:59:00;50080.19;;;-142.97;21.51
8451;BME280;4262;50.980;13.892;2023-04-10T09:01:27;50050.94;;;-142.97;20.71
8451;BME280;4262;50.980;13.892;2023-04-10T09:03:53;50074.34;;;-142.97;20.38
8451;BME280;4262;50.980;13.892;2023-04-10T09:06:21;50078.25;;;-142.97;21.00
8451;BME280;4262;50.980;13.892;2023-04-10T09:08:48;50058.75;;;-142.97;20.47
8451;BME280;4262;50.980;13.892;2023-04-10T09:11:14;50080.19;;;-142.97;20.57
8451;BME280;4262;50.980;13.892;2023-04-10T09:13:42;50049.00;;;-142.97;21.30
8451;BME280;4262;50.980;13.892;2023-04-10T09:16:12;50056.78;;;-142.97;21.30
8451;BME280;4262;50.980;13.892;2023-04-10T09:18:44;50078.25;;;-142.97;20.82
8451;BME280;4262;50.980;13.892;2023-04-10T09:21:13;50234.19;;;-142.97;20.78
8451;BME280;4262;50.980;13.892;2023-04-10T09:23:41;50082.13;;;-142.97;21.05
8451;BME280;4262;50.980;13.892;2023-04-10T09:26:21;50076.28;;;-142.97;20.95
8451;BME280;4262;50.980;13.892;2023-04-10T09:28:59;50088.00;;;-142.97;21.37
8451;BME280;4262;50.980;13.892;2023-04-10T09:31:30;50050.94;;;-142.97;20.89
8451;BME280;4262;50.980;13.892;2023-04-10T09:34:06;50043.16;;;-142.97;20.76
8451;BME280;4262;50.980;13.892;2023-04-10T09:36:33;50056.78;;;-142.97;21.05
8451;BME280;4262;50.980;13.892;2023-04-10T09:39:01;50013.91;;;-142.97;20.06
8451;BME280;4262;50.980;13.892;2023-04-10T09:41:28;50060.69;;;-142.97;20.79
8451;BME280;4262;50.980;13.892;2023-04-10T09:44:04;50086.03;;;-142.97;20.01
8451;BME280;4262;50.980;13.892;2023-04-10T09:46:33;50068.50;;;-142.97;20.94
8451;BME280;4262;50.980;13.892;2023-04-10T09:49:00;50041.19;;;-142.97;20.15
8451;BME280;4262;50.980;13.892;2023-04-10T09:51:30;50045.09;;;-142.97;20.34
8451;BME280;4262;50.980;13.892;2023-04-10T09:53:58;50041.19;;;-142.97;20.46
8451;BME280;4262;50.980;13.892;2023-04-10T09:56:25;50043.16;;;-142.97;21.04
8451;BME280;4262;50.980;13.892;2023-04-10T09:58:55;50052.91;;;-142.97;20.64
8451;BME280;4262;50.980;13.892;2023-04-10T10:01:24;50037.31;;;-142.97;20.65
8451;BME280;4262;50.980;13.892;2023-04-10T10:03:53;50039.25;;;-142.97;21.45
8451;BME280;4262;50.980;13.892;2023-04-10T10:06:21;50010.00;;;-142.97;20.45
8451;BME280;4262;50.980;13.892;2023-04-10T10:08:48;50058.75;;;-142.97;20.45
8451;BME280;4262;50.980;13.892;2023-04-10T10:11:18;50041.19;;;-142.97;20.25
8451;BME280;4262;50.980;13.892;2023-04-10T10:13:49;50035.34;;;-142.97;19.99
8451;BME280;4262;50.980;13.892;2023-04-10T10:16:20;50021.69;;;-142.97;19.89
8451;BME280;4262;50.980;13.892;2023-04-10T10:18:53;50029.50;;;-142.97;19.77
8451;BME280;4262;50.980;13.892;2023-04-10T10:21:27;50039.25;;;-142.97;20.05
8451;BME280;4262;50.980;13.892;2023-04-10T10:23:57;50072.38;;;-142.97;19.56
8451;BME280;4262;50.980;13.892;2023-04-10T10:26:24;50045.09;;;-142.97;19.65
8451;BME280;4262;50.980;13.892;2023-04-10T10:28:51;50004.16;;;-142.97;19.95
8451;BME280;4262;50.980;13.892;2023-04-10T10:31:20;50011.97;;;-142.97;19.96
8451;BME280;4262;50.980;13.892;2023-04-10T10:33:47;50013.91;;;-142.97;19.28
8451;BME280;4262;50.980;13.892;2023-04-10T10:36:15;50013.91;;;-142.97;19.21
8451;BME280;4262;50.980;13.892;2023-04-10T10:38:51;50027.56;;;-142.97;19.36
8451;BME280;4262;50.980;13.892;2023-04-10T10:41:24;50224.47;;;-142.97;20.21
8451;BME280;4262;50.980;13.892;2023-04-10T10:44:00;50011.97;;;-142.97;20.30
8451;BME280;4262;50.980;13.892;2023-04-10T10:46:35;49994.41;;;-142.97;20.24
8451;BME280;4262;50.980;13.892;2023-04-10T10:49:03;50029.50;;;-142.97;19.84
8451;BME280;4262;50.980;13.892;2023-04-10T10:51:42;50049.00;;;-142.97;19.76
8451;BME280;4262;50.980;13.892;2023-04-10T10:54:30;50021.69;;;-142.97;19.99
8451;BME280;4262;50.980;13.892;2023-04-10T10:56:57;50010.00;;;-142.97;19.84
8451;BME280;4262;50.980;13.892;2023-04-10T10:59:52;50027.56;;;-142.97;19.60
8451;BME280;4262;50.980;13.892;2023-04-10T11:02:19;50025.59;;;-142.97;19.65
8451;BME280;4262;50.980;13.892;2023-04-10T11:04:47;50035.34;;;-142.97;19.60
8451;BME280;4262;50.980;13.892;2023-04-10T11:07:15;50013.91;;;-142.97;19.64
8451;BME280;4262;50.980;13.892;2023-04-10T11:09:46;50041.19;;;-142.97;19.39
8451;BME280;4262;50.980;13.892;2023-04-10T11:12:14;50031.44;;;-142.97;19.96
8451;BME280;4262;50.980;13.892;2023-04-10T11:14:42;50019.75;;;-142.97;20.03
8451;BME280;4262;50.980;13.892;2023-04-10T11:17:11;50027.56;;;-142.97;20.71
8451;BME280;4262;50.980;13.892;2023-04-10T11:20:04;50031.44;;;-142.97;20.20
8451;BME280;4262;50.980;13.892;2023-04-10T11:23:08;50029.50;;;-142.97;19.82
8451;BME280;4262;50.980;13.892;2023-04-10T11:25:51;50043.16;;;-142.97;19.71
8451;BME280;4262;50.980;13.892;2023-04-10T11:28:33;50035.34;;;-142.97;20.03
8451;BME280;4262;50.980;13.892;2023-04-10T11:31:13;50033.41;;;-142.97;19.64
8451;BME280;4262;50.980;13.892;2023-04-10T11:33:40;50008.06;;;-142.97;20.36
8451;BME280;4262;50.980;13.892;2023-04-10T11:36:06;50037.31;;;-142.97;19.77
8451;BME280;4262;50.980;13.892;2023-04-10T11:38:33;50058.75;;;-142.97;19.89
8451;BME280;4262;50.980;13.892;2023-04-10T11:41:03;50045.09;;;-142.97;19.85
8451;BME280;4262;50.980;13.892;2023-04-10T11:43:31;50031.44;;;-142.97;19.47
8451;BME280;4262;50.980;13.892;2023-04-10T11:46:01;50070.44;;;-142.97;19.63
8451;BME280;4262;50.980;13.892;2023-04-10T11:48:28;50060.69;;;-142.97;19.60
8451;BME280;4262;50.980;13.892;2023-04-10T11:50:57;50029.50;;;-142.97;19.89
8451;BME280;4262;50.980;13.892;2023-04-10T11:53:26;50056.78;;;-142.97;19.98
8451;BME280;4262;50.980;13.892;2023-04-10T11:55:54;50047.03;;;-142.97;19.74
8451;BME280;4262;50.980;13.892;2023-04-10T11:58:24;50050.94;;;-142.97;19.95
8451;BME280;4262;50.980;13.892;2023-04-10T12:00:57;50050.94;;;-142.97;19.92
8451;BME280;4262;50.980;13.892;2023-04-10T12:03:34;50210.81;;;-142.97;19.38
8451;BME280;4262;50.980;13.892;2023-04-10T12:06:01;50138.69;;;-142.97;20.22
8451;BME280;4262;50.980;13.892;2023-04-10T12:08:32;50072.38;;;-142.97;19.99
8451;BME280;4262;50.980;13.892;2023-04-10T12:10:59;50068.50;;;-142.97;20.30
8451;BME280;4262;50.980;13.892;2023-04-10T12:13:28;50037.31;;;-142.97;20.55
8451;BME280;4262;50.980;13.892;2023-04-10T12:15:57;50109.44;;;-142.97;20.25
8451;BME280;4262;50.980;13.892;2023-04-10T12:18:24;50019.75;;;-142.97;20.25
8451;BME280;4262;50.980;13.892;2023-04-10T12:20:53;50060.69;;;-142.97;20.05
8451;BME280;4262;50.980;13.892;2023-04-10T12:23:22;50070.44;;;-142.97;19.69
8451;BME280;4262;50.980;13.892;2023-04-10T12:25:50;50060.69;;;-142.97;19.63
8451;BME280;4262;50.980;13.892;2023-04-10T12:28:19;50076.28;;;-142.97;19.92
8451;BME280;4262;50.980;13.892;2023-04-10T12:30:50;50074.34;;;-142.97;20.37
8451;BME280;4262;50.980;13.892;2023-04-10T12:33:21;50144.53;;;-142.97;20.05
8451;BME280;4262;50.980;13.892;2023-04-10T12:35:49;50060.69;;;-142.97;20.16
8451;BME280;4262;50.980;13.892;2023-04-10T12:38:34;50074.34;;;-142.97;19.75
8451;BME280;4262;50.980;13.892;2023-04-10T12:41:03;50216.66;;;-142.97;20.00
8451;BME280;4262;50.980;13.892;2023-04-10T12:43:34;50070.44;;;-142.97;20.53
8451;BME280;4262;50.980;13.892;2023-04-10T12:46:03;50086.03;;;-142.97;20.16
8451;BME280;4262;50.980;13.892;2023-04-10T12:48:30;50076.28;;;-142.97;20.01
8451;BME280;4262;50.980;13.892;2023-04-10T12:50:59;50093.84;;;-142.97;20.21
8451;BME280;4262;50.980;13.892;2023-04-10T12:53:25;50070.44;;;-142.97;19.72
8451;BME280;4262;50.980;13.892;2023-04-10T12:56:01;50086.03;;;-142.97;20.38
8451;BME280;4262;50.980;13.892;2023-04-10T12:58:28;50078.25;;;-142.97;21.15
8451;BME280;4262;50.980;13.892;2023-04-10T13:00:58;50072.38;;;-142.97;20.41
8451;BME280;4262;50.980;13.892;2023-04-10T13:03:29;50088.00;;;-142.97;20.26
8451;BME280;4262;50.980;13.892;2023-04-10T13:05:57;50070.44;;;-142.97;20.02
8451;BME280;4262;50.980;13.892;2023-04-10T13:08:24;50058.75;;;-142.97;20.00
8451;BME280;4262;50.980;13.892;2023-04-10T13:10:52;50080.19;;;-142.97;19.82
8451;BME280;4262;50.980;13.892;2023-04-10T13:13:39;50084.09;;;-142.97;19.72